Time;durP1;ratioP1;P1;durP2;ratioP2;P2;SDS_P1;SDS_P2;PMS_P1;PMS_P2;Temp;Humidity;BMP_temperature;BMP_pressure;BME280_temperature;BME280_humidity;BME280_pressure;Samples;Min_cycle;Max_cycle;Signal;HPM_P1;HPM_P2
2022/06/08 00:01:20;;;;;;;;;2.33;1.00;;;;;19.99;51.98;100756.88;4882484;29;67915;-80
2022/06/08 00:04:25;;;;;;;;;;;;;;;;;;;;;
2022/06/08 00:07:00;;;;;;;;;4.00;2.00;;;;;19.98;52.03;100741.75;4894969;29;75794;-81
2022/06/08 00:10:16;;;;;;;;;;;;;;;;;;;;;
2022/06/08 00:13:44;;;;;;;;;;;;;;;;;;;;;
2022/06/08 00:17:21;;;;;;;;;;;;;;;;;;;;;
2022/06/08 00:28:31;;;;;;;;;;;;;;;;;;;;;
2022/06/08 00:39:20;;;;;;;;;;;;;;;;;;;;;
2022/06/08 00:42:40;;;;;;;;;;;;;;;;;;;;;
2022/06/08 00:46:08;;;;;;;;;;;;;;;;;;;;;
2022/06/08 01:56:54;;;;;;;;;;;;;;;;;;;;;
2022/06/08 02:21:47;;;;;;;;;;;;;;;;;;;;;
2022/06/08 02:28:03;;;;;;;;;;;;;;;;;;;;;
2022/06/08 04:03:50;;;;;;;;;;;;;;;;;;;;;
2022/06/08 05:40:57;;;;;;;;;2.00;2.00;;;;;17.42;68.18;100482.41;6118791;22;4385385;-83
2022/06/08 05:43:23;;;;;;;;;2.67;2.67;;;;;17.42;68.05;100472.63;6289639;22;45445;-82
2022/06/08 05:45:49;;;;;;;;;2.33;2.00;;;;;17.46;68.15;100473.41;6289382;22;45330;-84
2022/06/08 05:48:15;;;;;;;;;3.00;1.33;;;;;17.42;67.84;100469.97;6317851;22;45322;-83
2022/06/08 05:50:42;;;;;;;;;4.00;4.00;;;;;17.42;68.23;100477.97;6317424;22;45347;-84
2022/06/08 05:53:08;;;;;;;;;1.33;1.33;;;;;17.38;67.87;100472.81;6289815;22;46632;-83
2022/06/08 05:55:34;;;;;;;;;2.00;2.00;;;;;17.33;68.09;100475.66;6317809;22;45287;-83
2022/06/08 05:57:59;;;;;;;;;1.00;1.00;;;;;17.35;68.09;100476.47;6289749;22;45226;-83
2022/06/08 06:00:29;;;;;;;;;2.00;2.00;;;;;17.33;68.46;100472.13;6317640;22;45168;-83
2022/06/08 06:02:56;;;;;;;;;3.00;3.00;;;;;17.30;68.29;100475.75;6289061;22;48004;-82
2022/06/08 06:06:00;;;;;;;;;;;;;;;;;;;;;
2022/06/08 06:13:47;;;;;;;;;;;;;;;;;;;;;
2022/06/08 06:16:20;;;;;;;;;2.00;2.00;;;;;17.29;68.91;100476.66;5975127;23;45323;-83
2022/06/08 06:18:45;;;;;;;;;2.00;2.00;;;;;17.30;68.72;100478.41;6047614;23;46066;-81
2022/06/08 06:21:25;;;;;;;;;1.00;1.00;;;;;17.30;69.22;100475.75;6097856;22;45288;-81
2022/06/08 06:23:54;;;;;;;;;1.00;1.00;;;;;17.28;68.86;100482.06;6261378;22;45431;-81
2022/06/08 06:26:19;;;;;;;;;2.67;2.00;;;;;17.29;69.29;100481.97;6281895;22;46646;-80
2022/06/08 06:28:46;;;;;;;;;4.00;4.00;;;;;17.29;69.42;100481.97;6308133;22;45633;-81
2022/06/08 06:31:24;;;;;;;;;1.33;1.33;;;;;17.30;69.51;100485.53;6310666;22;45472;-83
2022/06/08 06:33:50;;;;;;;;;3.00;2.00;;;;;17.34;69.74;100487.16;6309995;22;45458;-81
2022/06/08 06:36:40;;;;;;;;;1.00;1.00;;;;;17.38;69.58;100484.34;6310351;22;46230;-82
2022/06/08 06:39:23;;;;;;;;;3.00;3.00;;;;;17.35;69.43;100494.22;6286231;22;45254;-82
2022/06/08 06:41:51;;;;;;;;;2.33;2.00;;;;;17.32;69.27;100494.31;6281901;22;45288;-81
2022/06/08 06:45:13;;;;;;;;;;;;;;;;;;;;;
2022/06/08 06:47:38;;;;;;;;;1.67;1.67;;;;;17.24;69.62;100489.28;6202277;22;75219;-82
2022/06/08 06:50:06;;;;;;;;;0.67;0.67;;;;;17.24;69.52;100491.06;6311034;22;45206;-85
2022/06/08 06:52:32;;;;;;;;;1.00;0.00;;;;;17.23;69.52;100495.50;6282752;22;45342;-83
2022/06/08 06:55:57;;;;;;;;;;;;;;;;;;;;;
2022/06/08 06:58:36;;;;;;;;;;;;;;;;;;;;;
2022/06/08 07:23:20;;;;;;;;;;;;;;;;;;;;;
2022/06/08 07:26:24;;;;;;;;;;;;;;;;;;;;;
2022/06/08 07:29:52;;;;;;;;;1.00;1.00;;;;;17.31;70.81;100505.88;5923163;24;72804;-84
2022/06/08 07:32:29;;;;;;;;;;;;;;;;;;;;;
2022/06/08 07:34:55;;;;;;;;;0.67;0.00;;;;;17.38;70.36;100507.41;5976969;23;71823;-84
2022/06/08 07:37:55;;;;;;;;;1.00;1.00;;;;;17.41;70.66;100507.31;6062364;23;47039;-82
2022/06/08 07:40:43;;;;;;;;;;;;;;;;;;;;;
2022/06/08 07:43:19;;;;;;;;;;;;;;;;;;;;;
2022/06/08 07:46:17;;;;;;;;;;;;;;;;;;;;;
2022/06/08 07:57:20;;;;;;;;;;;;;;;;;;;;;
2022/06/08 08:00:53;;;;;;;;;;;;;;;;;;;;;
2022/06/08 08:20:11;;;;;;;;;;;;;;;;;;;;;
2022/06/08 08:23:01;;;;;;;;;0.33;0.33;;;;;18.44;70.59;100491.00;6084191;22;68231;-82
2022/06/08 08:25:35;;;;;;;;;0.00;0.00;;;;;18.60;69.84;100490.34;6304025;22;45769;-82
2022/06/08 08:28:07;;;;;;;;;1.00;1.00;;;;;18.74;70.11;100493.31;6279339;22;47075;-82
2022/06/08 09:27:22;;;;;;;;;1.00;1.00;;;;;20.27;66.14;100507.91;6063735;23;45840;-83
2022/06/08 09:33:37;;;;;;;;;0.67;0.67;;;;;20.30;65.88;100504.22;6092452;23;45485;-83
2022/06/08 09:36:28;;;;;;;;;1.00;1.00;;;;;20.37;66.21;100496.75;6167735;22;45616;-85
2022/06/08 09:38:54;;;;;;;;;1.00;0.67;;;;;20.42;65.20;100494.72;6186923;22;45280;-82
2022/06/08 10:02:14;;;;;;;;;1.00;1.00;;;;;21.36;62.07;100491.75;6281297;22;46655;-83
2022/06/08 10:13:01;;;;;;;;;;;;;;;;;;;;;
2022/06/08 10:16:52;;;;;;;;;;;;;;;;;;;;;
2022/06/08 10:19:43;;;;;;;;;3.33;3.33;;;;;20.44;64.68;100512.41;6061862;23;71567;-81
2022/06/08 10:22:24;;;;;;;;;4.67;2.67;;;;;20.22;64.35;100520.59;6031608;23;47462;-81
2022/06/08 10:24:58;;;;;;;;;2.00;2.00;;;;;20.04;64.94;100513.44;6039191;23;45579;-80
2022/06/08 10:28:03;;;;;;;;;;;;;;;;;;;;;
2022/06/08 10:31:06;;;;;;;;;3.00;2.00;;;;;19.95;65.69;100512.09;6059824;23;74116;-80
2022/06/08 10:34:04;;;;;;;;;2.00;2.00;;;;;20.01;66.28;100519.81;6063040;23;47201;-81
2022/06/08 10:37:32;;;;;;;;;2.00;2.00;;;;;20.12;65.86;100519.31;6078250;23;45483;-83
2022/06/08 10:43:49;;;;;;;;;3.00;3.00;;;;;20.23;66.46;100505.44;6068581;23;45508;-80
2022/06/08 10:46:56;;;;;;;;;1.33;1.33;;;;;20.46;67.22;100507.88;6069166;23;46770;-81
2022/06/08 10:49:53;;;;;;;;;4.67;2.00;;;;;20.72;66.39;100513.78;6194284;22;45253;-83
2022/06/08 10:52:21;;;;;;;;;2.33;2.33;;;;;20.83;65.89;100515.94;6310143;22;45215;-83
2022/06/08 10:55:15;;;;;;;;;3.00;3.00;;;;;20.99;66.21;100508.00;6308277;22;45387;-83
2022/06/08 10:59:14;;;;;;;;;;;;;;;;;;;;;
2022/06/08 11:02:14;;;;;;;;;;;;;;;;;;;;;
2022/06/08 11:05:18;;;;;;;;;4.00;4.00;;;;;21.38;64.25;100518.47;6252477;22;67959;-83
2022/06/08 11:11:42;;;;;;;;;4.33;4.00;;;;;21.81;61.88;100513.50;6180151;22;45975;-82
2022/06/08 11:15:17;;;;;;;;;;;;;;;;;;;;;
2022/06/08 11:17:57;;;;;;;;;4.67;4.67;;;;;21.99;58.92;100508.97;6213416;22;67826;-81
2022/06/08 11:24:05;;;;;;;;;3.00;2.00;;;;;22.28;58.13;100510.06;6192125;23;45382;-83
2022/06/08 11:26:37;;;;;;;;;2.00;2.00;;;;;22.62;57.13;100506.34;6158218;23;45259;-83
2022/06/08 11:29:17;;;;;;;;;3.67;2.00;;;;;22.90;56.81;100510.94;6184345;23;45387;-82
2022/06/08 11:31:43;;;;;;;;;2.00;2.00;;;;;23.09;55.74;100501.84;6158563;23;45300;-82
2022/06/08 11:34:20;;;;;;;;;5.00;2.00;;;;;23.15;55.26;100508.66;6204369;22;46319;-85
2022/06/08 11:40:30;;;;;;;;;1.33;1.33;;;;;22.91;54.20;100509.16;6212833;22;45423;-82
2022/06/08 11:43:19;;;;;;;;;4.00;4.00;;;;;22.84;54.58;100518.50;6301678;22;45600;-82
2022/06/08 11:46:02;;;;;;;;;2.00;1.67;;;;;22.78;53.69;100526.94;6275666;22;47084;-81
2022/06/08 11:52:50;;;;;;;;;;;;;;;;;;;;;
2022/06/08 11:56:05;;;;;;;;;;;;;;;;;;;;;
2022/06/08 12:06:02;;;;;;;;;;;;;;;;;;;;;
2022/06/08 12:19:41;;;;;;;;;;;;;;;;;;;;;
2022/06/08 12:23:06;;;;;;;;;;;;;;;;;;;;;
2022/06/08 12:25:35;;;;;;;;;1.33;1.33;;;;;23.83;46.18;100506.28;6158032;22;73730;-81
2022/06/08 12:28:19;;;;;;;;;;;;;;;;;;;;;
2022/06/08 12:30:51;;;;;;;;;2.00;2.00;;;;;24.06;46.17;100496.78;6266277;22;67686;-83
2022/06/08 12:33:45;;;;;;;;;2.00;1.00;;;;;24.31;45.81;100498.72;6254004;22;45196;-83
2022/06/08 12:36:24;;;;;;;;;0.67;0.00;;;;;24.58;44.93;100482.63;6215110;22;47079;-81
2022/06/08 12:39:11;;;;;;;;;2.67;2.67;;;;;24.77;43.81;100492.16;6227126;22;45461;-84
2022/06/08 12:41:53;;;;;;;;;2.00;1.00;;;;;24.91;43.99;100481.31;6249188;22;45221;-83
2022/06/08 12:44:20;;;;;;;;;2.00;1.00;;;;;25.08;43.12;100485.56;6246436;22;45328;-81
2022/06/08 12:46:53;;;;;;;;;1.00;1.00;;;;;25.22;42.13;100482.81;6220690;22;46889;-85
2022/06/08 12:50:01;;;;;;;;;;;;;;;;;;;;;
2022/06/08 12:53:02;;;;;;;;;1.00;1.00;;;;;25.56;41.59;100487.69;6246581;22;68319;-85
2022/06/08 12:55:38;;;;;;;;;;;;;;;;;;;;;
2022/06/08 12:58:10;;;;;;;;;0.00;0.00;;;;;25.51;39.99;100477.22;6247549;22;74805;-87
2022/06/08 13:00:58;;;;;;;;;1.00;1.00;;;;;25.58;40.51;100475.84;6218723;22;45611;-83
2022/06/08 13:03:44;;;;;;;;;2.00;2.00;;;;;25.67;40.10;100477.00;6249797;22;45358;-84
2022/06/08 13:06:28;;;;;;;;;1.00;1.00;;;;;25.48;40.17;100486.41;6277372;22;45466;-85
2022/06/08 13:09:37;;;;;;;;;1.00;1.00;;;;;25.24;40.15;100482.72;6249436;22;46220;-86
2022/06/08 13:12:03;;;;;;;;;1.33;1.33;;;;;25.04;39.90;100500.22;6249681;22;45228;-84
2022/06/08 13:14:33;;;;;;;;;1.33;1.33;;;;;24.84;40.58;100488.09;6309132;22;45126;-83
2022/06/08 13:16:59;;;;;;;;;3.33;1.00;;;;;24.61;40.49;100519.25;6280999;22;45496;-83
2022/06/08 13:19:26;;;;;;;;;3.33;1.00;;;;;24.33;41.08;100512.94;6306411;22;47720;-84
2022/06/08 13:21:52;;;;;;;;;2.00;1.33;;;;;24.12;41.48;100514.34;6278610;22;45263;-83
2022/06/08 13:24:25;;;;;;;;;2.00;2.00;;;;;23.96;41.89;100523.38;6308723;22;45127;-84
2022/06/08 13:26:53;;;;;;;;;2.67;1.00;;;;;23.73;41.58;100521.25;6305987;22;45588;-83
2022/06/08 13:29:22;;;;;;;;;1.67;1.00;;;;;23.52;41.30;100518.03;6308786;22;46169;-83
2022/06/08 13:31:48;;;;;;;;;2.33;2.33;;;;;23.44;41.78;100528.38;6307666;22;45311;-83
2022/06/08 13:34:17;;;;;;;;;2.00;2.00;;;;;23.44;41.67;100533.75;6281948;22;45369;-83
2022/06/08 13:37:39;;;;;;;;;1.00;1.00;;;;;23.43;40.97;100532.91;6281543;22;45386;-86
2022/06/08 13:41:04;;;;;;;;;;;;;;;;;;;;;
2022/06/08 13:50:39;;;;;;;;;1.00;1.00;;;;;25.11;39.99;100519.53;6308211;22;45409;-91
2022/06/08 13:53:26;;;;;;;;;3.67;1.33;;;;;25.31;39.25;100527.13;6309112;22;46643;-90
2022/06/08 13:56:03;;;;;;;;;2.00;1.00;;;;;25.42;39.25;100542.53;6281761;22;45479;-93
2022/06/08 13:58:29;;;;;;;;;1.67;1.67;;;;;25.41;39.28;100538.13;6307996;22;45184;-90
2022/06/08 14:00:59;;;;;;;;;1.67;1.00;;;;;25.37;39.36;100540.19;6282871;22;45252;-90
2022/06/08 14:03:30;;;;;;;;;3.00;2.00;;;;;25.14;39.45;100544.41;6309263;22;47031;-90
2022/06/08 14:15:28;;;;;;;;;;;;;;;;;;;;;
2022/06/08 14:18:05;;;;;;;;;;;;;;;;;;;;;
2022/06/08 14:20:40;;;;;;;;;3.00;1.00;;;;;24.40;41.70;100543.00;6323641;22;67839;-93
2022/06/08 14:23:11;;;;;;;;;1.33;1.33;;;;;24.61;41.45;100549.72;6289030;22;45436;-89
2022/06/08 14:29:30;;;;;;;;;2.00;2.00;;;;;25.63;40.71;100546.44;6264521;22;45284;-91
2022/06/08 14:35:56;;;;;;;;;2.00;1.33;;;;;26.67;38.36;100546.22;6170271;22;45316;-89
2022/06/08 14:45:46;;;;;;;;;1.00;1.00;;;;;27.21;36.33;100551.19;6119149;23;45421;-82
2022/06/08 14:48:23;;;;;;;;;2.67;2.67;;;;;27.45;37.06;100544.84;6172865;22;45250;-81
2022/06/08 14:50:56;;;;;;;;;1.00;1.00;;;;;28.31;36.67;100533.50;6276902;22;46652;-84
2022/06/08 14:53:26;;;;;;;;;2.00;1.33;;;;;29.42;35.91;100538.69;6276929;22;45398;-83
2022/06/08 14:58:45;;;;;;;;;1.00;0.00;;;;;30.94;33.34;100525.16;6277426;22;45382;-83
2022/06/08 15:01:17;;;;;;;;;1.00;1.00;;;;;32.15;30.70;100529.09;6248847;22;46954;-81
2022/06/08 15:03:42;;;;;;;;;0.00;0.00;;;;;31.89;30.27;100528.91;6277083;22;44793;-81
2022/06/08 15:07:06;;;;;;;;;0.33;0.33;;;;;31.17;30.68;100552.09;6277411;22;45419;-81
2022/06/08 15:09:32;;;;;;;;;1.00;1.00;;;;;30.17;30.52;100544.84;6268006;22;45324;-79
2022/06/08 15:12:00;;;;;;;;;2.00;1.67;;;;;29.58;30.97;100537.38;6277195;22;46480;-81
2022/06/08 15:14:55;;;;;;;;;0.67;0.67;;;;;31.03;30.66;100542.47;6249814;22;45333;-80
2022/06/08 15:18:19;;;;;;;;;0.00;0.00;;;;;30.42;29.63;100551.69;6274623;22;45347;-82
2022/06/08 15:24:03;;;;;;;;;1.00;1.00;;;;;29.80;31.25;100561.66;6254082;22;45875;-78
2022/06/08 15:26:28;;;;;;;;;0.00;0.00;;;;;31.72;30.57;100556.91;6248909;22;45402;-82
2022/06/08 15:28:54;;;;;;;;;1.00;0.00;;;;;32.83;28.09;100564.16;6277248;22;45313;-82
2022/06/08 15:31:20;;;;;;;;;1.00;1.00;;;;;32.57;28.30;100580.41;6274096;22;45398;-82
2022/06/08 15:33:45;;;;;;;;;1.00;1.00;;;;;32.68;27.93;100561.09;6247585;22;46805;-81
2022/06/08 15:36:14;;;;;;;;;0.67;0.67;;;;;33.05;26.95;100565.59;6249381;22;45483;-81
2022/06/08 15:38:49;;;;;;;;;0.33;0.33;;;;;33.13;27.91;100573.00;6276781;22;45167;-84
2022/06/08 15:41:14;;;;;;;;;0.67;0.67;;;;;34.35;27.26;100583.97;6275473;22;45791;-81
2022/06/08 15:43:40;;;;;;;;;2.00;2.00;;;;;34.59;25.48;100565.94;6248446;22;45998;-81
2022/06/08 15:46:07;;;;;;;;;2.00;2.00;;;;;33.56;25.37;100574.06;6248088;22;46296;-82
2022/06/08 15:48:33;;;;;;;;;1.33;1.00;;;;;32.43;26.29;100584.47;6249483;22;45436;-82
2022/06/08 15:51:09;;;;;;;;;1.67;1.00;;;;;31.61;26.99;100586.00;6248458;22;45470;-81
2022/06/08 15:53:51;;;;;;;;;1.33;1.33;;;;;30.92;27.34;100586.97;6248369;22;47059;-81
2022/06/08 15:56:23;;;;;;;;;1.67;1.67;;;;;30.03;27.73;100581.38;6272818;22;45523;-83
2022/06/08 15:58:54;;;;;;;;;3.00;3.00;;;;;29.11;28.99;100573.03;6274689;22;45546;-82
2022/06/08 16:01:20;;;;;;;;;1.00;1.00;;;;;30.71;29.42;100576.22;6245405;22;45659;-79
2022/06/08 16:03:46;;;;;;;;;3.00;1.00;;;;;31.97;28.02;100585.38;6274636;22;45383;-80
2022/06/08 16:06:11;;;;;;;;;4.67;3.00;;;;;31.38;27.58;100587.31;6273760;22;45532;-80
2022/06/08 16:08:37;;;;;;;;;1.67;1.00;;;;;30.44;27.83;100592.28;6247943;22;45421;-81
2022/06/08 16:11:03;;;;;;;;;1.00;1.00;;;;;29.29;28.89;100594.13;6274658;22;45417;-80
2022/06/08 16:13:28;;;;;;;;;0.00;0.00;;;;;28.22;29.80;100601.94;6272723;22;47477;-80
2022/06/08 16:15:55;;;;;;;;;1.67;1.67;;;;;27.31;31.11;100596.44;6247040;22;45361;-80
2022/06/08 16:18:22;;;;;;;;;2.00;2.00;;;;;26.69;32.24;100592.03;6273746;22;45422;-82
2022/06/08 16:20:48;;;;;;;;;3.00;2.00;;;;;26.23;33.42;100600.75;6246615;22;45824;-81
2022/06/08 16:23:15;;;;;;;;;1.00;0.00;;;;;25.76;33.84;100608.50;6274271;22;46440;-82
2022/06/08 16:25:40;;;;;;;;;1.00;1.00;;;;;25.41;34.55;100611.78;6272291;22;45415;-82
2022/06/08 16:28:08;;;;;;;;;1.00;1.00;;;;;25.51;35.64;100615.56;6274259;22;45380;-82
2022/06/08 16:30:36;;;;;;;;;1.00;1.00;;;;;27.12;35.39;100614.00;6246527;22;45504;-80
2022/06/08 16:33:03;;;;;;;;;3.33;2.00;;;;;29.87;33.77;100611.72;6246038;22;46196;-81
2022/06/08 16:35:29;;;;;;;;;0.00;0.00;;;;;30.60;30.93;100611.63;6272916;22;45391;-82
2022/06/08 16:37:56;;;;;;;;;2.33;2.00;;;;;30.55;30.19;100603.91;6273683;22;45716;-80
2022/06/08 16:40:27;;;;;;;;;2.00;1.00;;;;;31.71;29.54;100617.81;6220783;22;45478;-81
2022/06/08 16:42:53;;;;;;;;;1.00;1.00;;;;;30.93;28.39;100615.91;6246888;22;46887;-84
2022/06/08 16:45:19;;;;;;;;;1.00;1.00;;;;;31.46;29.18;100624.69;6276157;22;45329;-81
2022/06/08 16:47:45;;;;;;;;;0.67;0.67;;;;;33.07;28.69;100614.56;6248524;22;45607;-81
2022/06/08 16:50:13;;;;;;;;;1.00;1.00;;;;;34.54;27.47;100621.13;6276195;22;45639;-81
2022/06/08 16:52:39;;;;;;;;;0.67;0.67;;;;;34.84;25.59;100627.94;6275188;22;45458;-83
2022/06/08 16:55:04;;;;;;;;;0.67;0.67;;;;;34.03;26.24;100623.75;6275702;22;45183;-82
2022/06/08 17:00:18;;;;;;;;;0.00;0.00;;;;;34.61;25.27;100621.34;6276385;22;45165;-83
2022/06/08 17:02:44;;;;;;;;;2.00;2.00;;;;;34.07;25.76;100627.03;6273793;22;47872;-82
2022/06/08 17:05:10;;;;;;;;;1.67;1.33;;;;;33.51;26.11;100634.56;6247681;22;45450;-81
2022/06/08 17:07:39;;;;;;;;;3.00;1.00;;;;;32.91;26.84;100648.81;6276371;22;45425;-81
2022/06/08 17:10:05;;;;;;;;;3.67;2.67;;;;;32.17;26.93;100657.00;6248247;22;45499;-81
2022/06/08 17:12:30;;;;;;;;;2.00;2.00;;;;;31.43;27.95;100655.78;6275407;22;45418;-82
2022/06/08 17:14:56;;;;;;;;;2.67;2.67;;;;;30.46;28.76;100659.06;6247318;22;45262;-81
2022/06/08 17:17:29;;;;;;;;;3.00;3.00;;;;;29.39;29.00;100668.31;6275193;22;45387;-82
2022/06/08 17:19:55;;;;;;;;;1.67;1.67;;;;;28.39;30.87;100671.00;6275540;22;45551;-80
2022/06/08 17:22:22;;;;;;;;;2.67;1.67;;;;;27.53;31.97;100666.81;6247947;22;46411;-82
2022/06/08 17:24:48;;;;;;;;;4.00;1.00;;;;;26.82;32.87;100685.56;6247617;22;45359;-81
2022/06/08 17:27:15;;;;;;;;;2.00;1.00;;;;;26.11;33.50;100687.00;6276040;22;45481;-81
2022/06/08 17:29:49;;;;;;;;;4.67;4.00;;;;;25.53;34.77;100701.75;6274289;22;45477;-81
2022/06/08 17:32:15;;;;;;;;;2.00;2.00;;;;;25.00;35.88;100700.72;6275585;22;45320;-83
2022/06/08 17:34:41;;;;;;;;;3.33;2.33;;;;;24.57;37.25;100701.66;6278467;22;45248;-83
2022/06/08 17:37:43;;;;;;;;;2.33;1.67;;;;;24.16;38.11;100721.19;6248521;22;45355;-82
2022/06/08 17:40:11;;;;;;;;;2.00;1.00;;;;;23.70;39.00;100734.66;6269015;22;45584;-82
2022/06/08 17:42:39;;;;;;;;;2.33;1.33;;;;;23.27;40.97;100745.19;6273292;22;47830;-81
2022/06/08 17:45:05;;;;;;;;;5.00;3.00;;;;;22.88;42.31;100753.59;6247331;22;45247;-80
2022/06/08 17:47:34;;;;;;;;;2.00;2.00;;;;;22.51;43.38;100752.03;6271823;22;45329;-80
2022/06/08 17:49:59;;;;;;;;;2.00;2.00;;;;;22.20;44.55;100751.84;6248118;22;45572;-81
2022/06/08 17:52:28;;;;;;;;;1.00;1.00;;;;;22.01;45.22;100751.06;6273495;22;47071;-81
2022/06/08 17:54:54;;;;;;;;;2.67;2.67;;;;;21.89;45.09;100752.56;6275739;22;45280;-81
2022/06/08 17:57:22;;;;;;;;;2.33;1.67;;;;;21.85;45.65;100748.28;6248051;22;45304;-81
2022/06/08 17:59:49;;;;;;;;;3.33;3.00;;;;;21.85;45.38;100750.97;6276172;22;45723;-81
2022/06/08 18:02:16;;;;;;;;;4.00;3.00;;;;;21.89;45.75;100747.19;6273988;22;45702;-79
2022/06/08 18:04:43;;;;;;;;;3.33;3.33;;;;;21.99;46.32;100753.78;6248214;22;45357;-79
2022/06/08 18:07:10;;;;;;;;;2.67;2.00;;;;;22.06;45.56;100748.13;6275691;22;45263;-79
2022/06/08 18:09:37;;;;;;;;;2.33;2.33;;;;;22.06;45.98;100750.81;6245682;22;45345;-80
2022/06/08 18:12:04;;;;;;;;;2.00;1.00;;;;;21.96;45.59;100745.91;6275132;22;45349;-79
2022/06/08 18:14:53;;;;;;;;;4.67;3.00;;;;;21.88;45.60;100739.22;6247487;22;45356;-79
2022/06/08 18:17:24;;;;;;;;;1.00;1.00;;;;;21.84;45.60;100751.91;6273798;22;45375;-81
2022/06/08 18:19:50;;;;;;;;;2.33;2.33;;;;;21.78;45.41;100754.88;6277425;22;45434;-81
2022/06/08 18:22:16;;;;;;;;;4.00;2.33;;;;;21.74;45.66;100767.59;6274836;22;46610;-84
2022/06/08 18:24:43;;;;;;;;;1.00;1.00;;;;;21.70;45.47;100749.91;6249540;22;45191;-81
2022/06/08 18:27:16;;;;;;;;;3.00;2.00;;;;;21.72;45.90;100758.75;6249471;22;45262;-82
2022/06/08 18:29:43;;;;;;;;;2.33;1.33;;;;;21.70;45.96;100765.13;6249008;22;45684;-85
2022/06/08 18:32:11;;;;;;;;;1.00;1.00;;;;;21.71;45.89;100765.06;6276421;22;45359;-83
2022/06/08 18:34:37;;;;;;;;;3.00;2.00;;;;;21.71;45.66;100780.28;6247218;22;45406;-81
2022/06/08 18:37:03;;;;;;;;;1.67;1.67;;;;;21.69;45.91;100774.97;6277851;22;45385;-79
2022/06/08 18:39:29;;;;;;;;;1.00;1.00;;;;;21.64;46.41;100781.50;6248074;22;45849;-84
2022/06/08 18:41:55;;;;;;;;;2.00;1.00;;;;;21.60;45.51;100791.53;6276677;22;46169;-82
2022/06/08 18:44:21;;;;;;;;;2.00;2.00;;;;;21.53;44.89;100792.75;6277972;22;45350;-82
2022/06/08 18:46:47;;;;;;;;;2.33;2.00;;;;;21.41;44.56;100788.88;6249767;22;45369;-81
2022/06/08 18:49:14;;;;;;;;;2.67;2.33;;;;;21.31;45.13;100800.94;6276580;22;45395;-81
2022/06/08 18:51:42;;;;;;;;;1.00;1.00;;;;;21.25;46.31;100804.75;6248786;22;47497;-81
2022/06/08 18:54:09;;;;;;;;;1.00;1.00;;;;;21.17;46.67;100808.72;6275828;22;45665;-80
2022/06/08 18:56:35;;;;;;;;;1.00;1.00;;;;;21.10;46.56;100808.16;6276442;22;45284;-80
2022/06/08 18:59:00;;;;;;;;;2.00;1.00;;;;;21.01;46.52;100811.25;6277592;22;45274;-80
2022/06/08 19:01:29;;;;;;;;;0.33;0.33;;;;;20.89;46.60;100802.84;6249408;22;47540;-80
2022/06/08 19:03:56;;;;;;;;;2.67;1.00;;;;;20.82;46.88;100806.75;6277308;22;44654;-81
2022/06/08 19:06:22;;;;;;;;;3.00;2.00;;;;;20.81;47.51;100809.50;6281054;22;44774;-84
2022/06/08 19:08:50;;;;;;;;;1.00;1.00;;;;;20.79;46.94;100806.00;6259988;22;45869;-84
2022/06/08 19:11:19;;;;;;;;;1.00;1.00;;;;;20.77;46.68;100806.09;6260557;22;46965;-84
2022/06/08 19:13:45;;;;;;;;;2.67;1.67;;;;;20.75;46.16;100810.63;6286520;22;45166;-86
2022/06/08 19:16:12;;;;;;;;;3.33;1.67;;;;;20.70;46.38;100801.94;6234463;22;45574;-79
2022/06/08 19:21:23;;;;;;;;;1.67;1.00;;;;;20.56;47.23;100820.44;6289429;22;45429;-80
2022/06/08 19:23:49;;;;;;;;;2.67;1.67;;;;;20.48;47.18;100823.41;6261429;22;45320;-80
2022/06/08 19:26:15;;;;;;;;;1.00;1.00;;;;;20.39;47.13;100823.78;6262918;22;45638;-80
2022/06/08 19:28:43;;;;;;;;;2.33;1.67;;;;;20.27;47.87;100815.34;6289808;22;45745;-80
2022/06/08 19:31:10;;;;;;;;;1.00;1.00;;;;;20.21;47.92;100814.78;6261686;22;47323;-80
2022/06/08 19:33:52;;;;;;;;;4.33;2.67;;;;;20.17;48.55;100816.69;6264916;22;45323;-81
2022/06/08 19:36:19;;;;;;;;;2.33;2.33;;;;;20.12;48.70;100815.13;6291585;22;44803;-80
2022/06/08 19:38:48;;;;;;;;;2.00;2.00;;;;;20.05;49.09;100818.09;6263883;22;45317;-80
2022/06/08 19:41:16;;;;;;;;;2.67;1.00;;;;;19.99;49.37;100818.34;6261692;22;47218;-81
2022/06/08 19:43:43;;;;;;;;;1.33;1.00;;;;;19.92;49.67;100824.88;6289833;22;45337;-80
2022/06/08 19:46:09;;;;;;;;;2.00;1.00;;;;;19.87;49.25;100831.34;6260622;22;45478;-80
2022/06/08 19:48:35;;;;;;;;;1.00;1.00;;;;;19.78;49.78;100829.88;6291067;22;44926;-79
2022/06/08 19:51:01;;;;;;;;;1.00;1.00;;;;;19.73;50.34;100832.78;6291266;22;45318;-81
2022/06/08 19:53:29;;;;;;;;;2.00;2.00;;;;;19.67;50.50;100840.13;6253745;22;45691;-82
2022/06/08 19:55:56;;;;;;;;;2.00;2.00;;;;;19.62;50.25;100843.00;6247657;22;45637;-82
2022/06/08 19:58:22;;;;;;;;;1.00;1.00;;;;;19.56;51.11;100843.19;6273426;22;45672;-81
2022/06/08 20:00:56;;;;;;;;;2.00;1.00;;;;;19.51;50.58;100839.84;6262492;22;47068;-80
2022/06/08 20:03:24;;;;;;;;;1.00;1.00;;;;;19.47;51.20;100839.09;6289512;22;45326;-82
2022/06/08 20:05:50;;;;;;;;;3.00;3.00;;;;;19.46;51.48;100857.84;6286214;22;45252;-81
2022/06/08 20:08:15;;;;;;;;;3.67;2.00;;;;;19.42;51.36;100857.09;6260290;22;45785;-80
2022/06/08 20:10:42;;;;;;;;;1.67;1.00;;;;;19.38;51.76;100861.69;6290115;22;45654;-81
2022/06/08 20:13:08;;;;;;;;;1.33;0.67;;;;;19.32;51.77;100853.91;6261726;22;45383;-79
2022/06/08 20:15:35;;;;;;;;;2.00;2.00;;;;;19.29;51.63;100859.38;6288549;22;45372;-81
2022/06/08 20:18:01;;;;;;;;;2.00;2.00;;;;;19.24;52.02;100861.34;6260550;22;44775;-82
2022/06/08 20:20:29;;;;;;;;;0.00;0.00;;;;;19.20;51.93;100862.41;6250379;22;45581;-80
2022/06/08 20:22:55;;;;;;;;;2.00;2.00;;;;;19.17;52.60;100871.38;6260035;22;44656;-80
2022/06/08 20:25:24;;;;;;;;;3.00;2.67;;;;;19.16;52.33;100875.00;6290313;22;45252;-81
2022/06/08 20:27:50;;;;;;;;;1.67;1.00;;;;;19.18;53.00;100883.78;6261256;22;44832;-81
2022/06/08 20:30:16;;;;;;;;;1.00;1.00;;;;;19.20;52.77;100877.53;6262577;22;45531;-81
2022/06/08 20:32:42;;;;;;;;;3.00;3.00;;;;;19.26;52.96;100893.31;6290190;22;45465;-81
2022/06/08 20:35:14;;;;;;;;;4.00;4.00;;;;;19.28;52.81;100911.03;6257056;22;45436;-82
2022/06/08 20:38:09;;;;;;;;;1.67;1.67;;;;;19.28;53.10;100947.53;6256234;22;45561;-82
2022/06/08 20:40:36;;;;;;;;;1.00;1.00;;;;;19.18;54.96;100957.66;6284661;22;47685;-82
2022/06/08 20:43:03;;;;;;;;;8.00;6.50;;;;;18.94;56.34;100946.06;6263729;22;45062;-82
2022/06/08 20:45:31;;;;;;;;;4.67;3.67;;;;;18.80;56.88;100941.22;6287102;22;45408;-82
2022/06/08 20:47:57;;;;;;;;;1.00;1.00;;;;;18.64;57.29;100931.97;6262322;22;45171;-81
2022/06/08 20:50:24;;;;;;;;;2.67;2.67;;;;;18.52;57.83;100930.56;6285860;22;45493;-82
2022/06/08 20:52:51;;;;;;;;;1.67;1.00;;;;;18.39;57.77;100937.22;6262596;22;45360;-82
2022/06/08 20:55:18;;;;;;;;;2.00;2.00;;;;;18.29;57.66;100937.56;6262959;22;45733;-82
2022/06/08 20:57:45;;;;;;;;;6.00;4.00;;;;;18.21;57.91;100941.41;6262922;22;46239;-83
2022/06/08 21:00:17;;;;;;;;;3.67;3.67;;;;;18.15;58.68;100930.91;6262525;22;47189;-81
2022/06/08 21:02:43;;;;;;;;;4.00;3.00;;;;;18.12;58.95;100941.66;6263908;22;44791;-82
2022/06/08 21:05:09;;;;;;;;;4.00;3.33;;;;;18.07;59.24;100939.19;6286855;22;45702;-81
2022/06/08 21:07:36;;;;;;;;;5.00;3.67;;;;;18.01;59.70;100940.22;6256842;22;45688;-81
2022/06/08 21:10:04;;;;;;;;;2.00;2.00;;;;;17.95;60.00;100934.22;6254419;22;46900;-81
2022/06/08 21:12:31;;;;;;;;;2.33;2.33;;;;;17.88;59.77;100945.97;6249069;22;45488;-80
2022/06/08 21:14:57;;;;;;;;;2.00;2.00;;;;;17.78;59.61;100945.38;6256968;22;45305;-82
2022/06/08 21:17:23;;;;;;;;;2.67;1.67;;;;;17.66;59.73;100951.06;6289757;22;44832;-80
2022/06/08 21:19:48;;;;;;;;;2.00;1.00;;;;;17.58;59.98;100945.94;6282553;22;45356;-79
2022/06/08 21:22:14;;;;;;;;;2.00;2.00;;;;;17.51;60.37;100958.59;6259197;22;45768;-81
2022/06/08 21:24:40;;;;;;;;;5.33;2.67;;;;;17.45;60.55;100955.22;6260898;22;45281;-80
2022/06/08 21:27:06;;;;;;;;;1.00;1.00;;;;;17.39;60.51;100954.47;6291868;22;44796;-82
2022/06/08 21:29:32;;;;;;;;;3.00;2.00;;;;;17.30;60.83;100946.75;6263914;22;47500;-83
2022/06/08 21:31:57;;;;;;;;;3.00;3.00;;;;;17.28;61.03;100961.88;6265000;22;45398;-80
2022/06/08 21:34:23;;;;;;;;;4.00;3.00;;;;;17.23;61.32;100961.13;6291615;22;45050;-81
2022/06/08 21:36:50;;;;;;;;;2.33;1.00;;;;;17.23;61.55;100971.78;6291775;22;44787;-81
2022/06/08 21:39:21;;;;;;;;;4.67;2.33;;;;;17.18;61.84;100963.06;6289136;22;45369;-81
2022/06/08 21:41:48;;;;;;;;;4.33;2.67;;;;;17.13;61.77;100967.63;6289710;22;45353;-81
2022/06/08 21:44:15;;;;;;;;;3.00;2.00;;;;;17.10;62.11;100965.91;6294263;22;45362;-81